sensor_id;sensor_type;location;lat;lon;timestamp;pressure;altitude;pressure_sealevel;temperature;humidity
66857;BME280;53766;50.280;19.160;2023-04-07T00:01:22;98382.72;;;16.38;42.53
66857;BME280;53766;50.280;19.160;2023-04-07T00:03:49;98375.75;;;16.37;42.57
66857;BME280;53766;50.280;19.160;2023-04-07T00:06:17;98373.28;;;16.36;42.81
66857;BME280;53766;50.280;19.160;2023-04-07T00:08:44;98372.47;;;16.35;42.77
66857;BME280;53766;50.280;19.160;2023-04-07T00:11:12;98372.28;;;16.37;42.85
66857;BME280;53766;50.280;19.160;2023-04-07T00:13:39;98368.63;;;16.38;42.69
66857;BME280;53766;50.280;19.160;2023-04-07T00:16:07;98371.47;;;16.36;42.67
66857;BME280;53766;50.280;19.160;2023-04-07T00:18:34;98360.81;;;16.36;42.79
66857;BME280;53766;50.280;19.160;2023-04-07T00:21:02;98360.81;;;16.36;42.80
66857;BME280;53766;50.280;19.160;2023-04-07T00:23:29;98361.63;;;16.37;42.67
66857;BME280;53766;50.280;19.160;2023-04-07T00:25:57;98360.81;;;16.36;42.76
66857;BME280;53766;50.280;19.160;2023-04-07T00:28:25;98361.63;;;16.37;42.70
66857;BME280;53766;50.280;19.160;2023-04-07T00:30:53;98356.31;;;16.37;42.89
66857;BME280;53766;50.280;19.160;2023-04-07T00:33:20;98355.50;;;16.36;42.80
66857;BME280;53766;50.280;19.160;2023-04-07T00:35:48;98353.03;;;16.35;42.80
66857;BME280;53766;50.280;19.160;2023-04-07T00:38:15;98346.91;;;16.34;42.90
66857;BME280;53766;50.280;19.160;2023-04-07T00:40:43;98341.59;;;16.34;42.81
66857;BME280;53766;50.280;19.160;2023-04-07T00:43:10;98344.06;;;16.36;42.70
66857;BME280;53766;50.280;19.160;2023-04-07T00:45:38;98336.28;;;16.34;42.81
66857;BME280;53766;50.280;19.160;2023-04-07T00:48:05;98342.63;;;16.33;42.79
66857;BME280;53766;50.280;19.160;2023-04-07T00:50:33;98350.59;;;16.33;42.86
66857;BME280;53766;50.280;19.160;2023-04-07T00:53:00;98339.97;;;16.33;42.83
66857;BME280;53766;50.280;19.160;2023-04-07T00:55:29;98341.59;;;16.34;42.75
66857;BME280;53766;50.280;19.160;2023-04-07T00:57:56;98347.94;;;16.33;42.79
66857;BME280;53766;50.280;19.160;2023-04-07T01:00:25;98331.97;;;16.33;42.70
66857;BME280;53766;50.280;19.160;2023-04-07T01:03:10;98330.31;;;16.32;42.96
66857;BME280;53766;50.280;19.160;2023-04-07T01:05:53;98327.66;;;16.32;42.96
66857;BME280;53766;50.280;19.160;2023-04-07T01:13:35;98326.66;;;16.33;42.81
66857;BME280;53766;50.280;19.160;2023-04-07T01:16:10;98330.31;;;16.32;42.78
66857;BME280;53766;50.280;19.160;2023-04-07T01:18:39;98325.19;;;16.31;42.79
66857;BME280;53766;50.280;19.160;2023-04-07T01:21:14;98322.34;;;16.32;42.75
66857;BME280;53766;50.280;19.160;2023-04-07T01:23:54;98319.06;;;16.30;42.88
66857;BME280;53766;50.280;19.160;2023-04-07T01:26:27;98324.38;;;16.30;42.69
66857;BME280;53766;50.280;19.160;2023-04-07T01:31:36;98331.34;;;16.31;42.77
66857;BME280;53766;50.280;19.160;2023-04-07T01:34:08;98325.19;;;16.31;42.84
66857;BME280;53766;50.280;19.160;2023-04-07T01:36:37;98330.50;;;16.31;42.84
66857;BME280;53766;50.280;19.160;2023-04-07T01:39:05;98329.69;;;16.30;43.03
66857;BME280;53766;50.280;19.160;2023-04-07T01:41:34;98320.09;;;16.29;42.86
66857;BME280;53766;50.280;19.160;2023-04-07T01:44:03;98316.59;;;16.29;42.77
66857;BME280;53766;50.280;19.160;2023-04-07T01:46:31;98312.13;;;16.29;42.92
66857;BME280;53766;50.280;19.160;2023-04-07T01:49:00;98310.47;;;16.28;42.93
66857;BME280;53766;50.280;19.160;2023-04-07T01:51:29;98307.81;;;16.28;42.88
66857;BME280;53766;50.280;19.160;2023-04-07T01:53:58;98308.84;;;16.27;42.89
66857;BME280;53766;50.280;19.160;2023-04-07T01:56:26;98305.16;;;16.28;42.86
66857;BME280;53766;50.280;19.160;2023-04-07T01:58:53;98307.81;;;16.28;42.90
66857;BME280;53766;50.280;19.160;2023-04-07T02:01:21;98308.84;;;16.27;42.97
66857;BME280;53766;50.280;19.160;2023-04-07T02:07:00;98312.13;;;16.29;42.85
66857;BME280;53766;50.280;19.160;2023-04-07T02:09:31;98303.53;;;16.27;42.94
66857;BME280;53766;50.280;19.160;2023-04-07T02:12:01;98309.66;;;16.28;42.94
66857;BME280;53766;50.280;19.160;2023-04-07T02:14:31;98314.16;;;16.27;42.78
66857;BME280;53766;50.280;19.160;2023-04-07T02:17:00;98314.16;;;16.27;42.89
66857;BME280;53766;50.280;19.160;2023-04-07T02:19:28;98309.84;;;16.26;42.86
66857;BME280;53766;50.280;19.160;2023-04-07T02:21:58;98301.88;;;16.26;42.91
66857;BME280;53766;50.280;19.160;2023-04-07T02:24:28;98307.19;;;16.26;42.83
66857;BME280;53766;50.280;19.160;2023-04-07T02:26:55;98313.53;;;16.25;43.03
66857;BME280;53766;50.280;19.160;2023-04-07T02:29:23;98320.47;;;16.26;42.98
66857;BME280;53766;50.280;19.160;2023-04-07T02:31:51;98317.81;;;16.26;42.91
66857;BME280;53766;50.280;19.160;2023-04-07T02:34:18;98318.66;;;16.27;43.04
66857;BME280;53766;50.280;19.160;2023-04-07T02:36:45;98310.88;;;16.25;43.01
66857;BME280;53766;50.280;19.160;2023-04-07T02:39:13;98319.66;;;16.25;42.86
66857;BME280;53766;50.280;19.160;2023-04-07T02:41:40;98306.34;;;16.25;43.01
66857;BME280;53766;50.280;19.160;2023-04-07T02:44:08;98310.69;;;16.27;42.92
66857;BME280;53766;50.280;19.160;2023-04-07T02:46:35;98301.22;;;16.24;42.90
66857;BME280;53766;50.280;19.160;2023-04-07T02:49:03;98303.06;;;16.23;43.13
66857;BME280;53766;50.280;19.160;2023-04-07T02:51:30;98304.91;;;16.23;43.09
66857;BME280;53766;50.280;19.160;2023-04-07T02:53:58;98296.94;;;16.23;42.95
66857;BME280;53766;50.280;19.160;2023-04-07T02:56:26;98295.91;;;16.24;43.06
66857;BME280;53766;50.280;19.160;2023-04-07T02:58:53;98293.47;;;16.22;43.03
66857;BME280;53766;50.280;19.160;2023-04-07T03:01:23;98292.63;;;16.22;42.87
66857;BME280;53766;50.280;19.160;2023-04-07T03:03:51;98300.59;;;16.22;42.91
66857;BME280;53766;50.280;19.160;2023-04-07T03:06:19;98299.59;;;16.23;42.99
66857;BME280;53766;50.280;19.160;2023-04-07T03:08:47;98293.25;;;16.24;42.95
66857;BME280;53766;50.280;19.160;2023-04-07T03:11:14;98291.81;;;16.21;42.98
66857;BME280;53766;50.280;19.160;2023-04-07T03:13:42;98292.84;;;16.20;42.97
66857;BME280;53766;50.280;19.160;2023-04-07T03:16:10;98291.63;;;16.23;43.20
66857;BME280;53766;50.280;19.160;2023-04-07T03:18:37;98290.19;;;16.20;43.17
66857;BME280;53766;50.280;19.160;2023-04-07T03:21:06;98283.03;;;16.21;42.90
66857;BME280;53766;50.280;19.160;2023-04-07T03:23:34;98290.19;;;16.20;43.04
66857;BME280;53766;50.280;19.160;2023-04-07T03:26:01;98287.53;;;16.20;42.88
66857;BME280;53766;50.280;19.160;2023-04-07T03:28:29;98285.88;;;16.19;43.11
66857;BME280;53766;50.280;19.160;2023-04-07T03:30:56;98288.34;;;16.21;43.07
66857;BME280;53766;50.280;19.160;2023-04-07T03:33:24;98297.31;;;16.20;43.08
66857;BME280;53766;50.280;19.160;2023-04-07T03:35:51;98301.00;;;16.19;43.20
66857;BME280;53766;50.280;19.160;2023-04-07T03:38:19;98297.31;;;16.20;43.05
66857;BME280;53766;50.280;19.160;2023-04-07T03:40:47;98290.38;;;16.19;42.92
66857;BME280;53766;50.280;19.160;2023-04-07T03:43:15;98285.88;;;16.19;43.06
66857;BME280;53766;50.280;19.160;2023-04-07T03:45:43;98294.66;;;16.20;42.99
66857;BME280;53766;50.280;19.160;2023-04-07T03:48:10;98285.88;;;16.19;42.93
66857;BME280;53766;50.280;19.160;2023-04-07T03:50:39;98294.06;;;16.18;42.92
66857;BME280;53766;50.280;19.160;2023-04-07T03:53:07;98294.06;;;16.18;43.20
66857;BME280;53766;50.280;19.160;2023-04-07T03:55:34;98289.56;;;16.18;42.98
66857;BME280;53766;50.280;19.160;2023-04-07T03:58:02;98291.41;;;16.18;43.08
66857;BME280;53766;50.280;19.160;2023-04-07T04:00:29;98281.78;;;16.17;43.11
66857;BME280;53766;50.280;19.160;2023-04-07T04:02:59;98279.13;;;16.17;43.17
66857;BME280;53766;50.280;19.160;2023-04-07T04:05:27;98288.75;;;16.18;43.08
66857;BME280;53766;50.280;19.160;2023-04-07T04:07:55;98287.09;;;16.17;42.98
66857;BME280;53766;50.280;19.160;2023-04-07T04:10:23;98281.78;;;16.17;43.22
66857;BME280;53766;50.280;19.160;2023-04-07T04:12:51;98293.22;;;16.17;42.94
66857;BME280;53766;50.280;19.160;2023-04-07T04:15:19;98291.41;;;16.18;43.08
66857;BME280;53766;50.280;19.160;2023-04-07T04:17:46;98281.78;;;16.17;43.00
66857;BME280;53766;50.280;19.160;2023-04-07T04:20:14;98292.41;;;16.17;43.00
66857;BME280;53766;50.280;19.160;2023-04-07T04:22:41;98287.09;;;16.17;43.12
66857;BME280;53766;50.280;19.160;2023-04-07T04:25:09;98287.09;;;16.17;43.19
66857;BME280;53766;50.280;19.160;2023-04-07T04:27:36;98290.78;;;16.16;43.01
66857;BME280;53766;50.280;19.160;2023-04-07T04:30:04;98280.13;;;16.16;42.99
66857;BME280;53766;50.280;19.160;2023-04-07T04:32:32;98285.47;;;16.16;43.18
66857;BME280;53766;50.280;19.160;2023-04-07T04:34:59;98296.09;;;16.16;43.17
66857;BME280;53766;50.280;19.160;2023-04-07T04:37:27;98301.41;;;16.16;43.13
66857;BME280;53766;50.280;19.160;2023-04-07T04:39:54;98300.56;;;16.15;42.90
66857;BME280;53766;50.280;19.160;2023-04-07T04:42:22;98303.41;;;16.14;43.07
66857;BME280;53766;50.280;19.160;2023-04-07T04:44:49;98299.75;;;16.15;43.02
66857;BME280;53766;50.280;19.160;2023-04-07T04:47:17;98306.06;;;16.14;43.30
66857;BME280;53766;50.280;19.160;2023-04-07T04:49:45;98307.88;;;16.13;43.03
66857;BME280;53766;50.280;19.160;2023-04-07T04:52:12;98307.06;;;16.13;43.30
66857;BME280;53766;50.280;19.160;2023-04-07T04:54:40;98303.78;;;16.11;43.30
66857;BME280;53766;50.280;19.160;2023-04-07T04:57:07;98315.22;;;16.11;43.42
66857;BME280;53766;50.280;19.160;2023-04-07T04:59:34;98310.31;;;16.08;43.39
66857;BME280;53766;50.280;19.160;2023-04-07T05:02:02;98312.78;;;16.10;43.55
66857;BME280;53766;50.280;19.160;2023-04-07T05:04:30;98315.44;;;16.10;43.50
66857;BME280;53766;50.280;19.160;2023-04-07T05:06:57;98314.41;;;16.11;43.67
66857;BME280;53766;50.280;19.160;2023-04-07T05:09:25;98311.34;;;16.07;43.37
66857;BME280;53766;50.280;19.160;2023-04-07T05:11:53;98314.00;;;16.07;43.92
66857;BME280;53766;50.280;19.160;2023-04-07T05:14:21;98306.84;;;16.08;44.27
66857;BME280;53766;50.280;19.160;2023-04-07T05:16:48;98314.81;;;16.08;44.21
66857;BME280;53766;50.280;19.160;2023-04-07T05:19:15;98315.63;;;16.08;44.34
66857;BME280;53766;50.280;19.160;2023-04-07T05:21:43;98298.88;;;16.08;44.54
66857;BME280;53766;50.280;19.160;2023-04-07T05:24:11;98284.56;;;16.09;44.46
66857;BME280;53766;50.280;19.160;2023-04-07T05:26:39;98286.41;;;16.08;44.55
66857;BME280;53766;50.280;19.160;2023-04-07T05:29:07;98301.34;;;16.09;44.62
66857;BME280;53766;50.280;19.160;2023-04-07T05:31:35;98297.84;;;16.09;44.43
66857;BME280;53766;50.280;19.160;2023-04-07T05:34:03;98305.81;;;16.09;44.80
66857;BME280;53766;50.280;19.160;2023-04-07T05:36:32;98313.78;;;16.09;44.85
66857;BME280;53766;50.280;19.160;2023-04-07T05:39:00;98316.44;;;16.09;44.62
66857;BME280;53766;50.280;19.160;2023-04-07T05:41:27;98327.06;;;16.09;44.89
66857;BME280;53766;50.280;19.160;2023-04-07T05:43:55;98329.72;;;16.09;44.93
66857;BME280;53766;50.280;19.160;2023-04-07T05:46:22;98321.13;;;16.07;44.70
66857;BME280;53766;50.280;19.160;2023-04-07T05:48:50;98326.44;;;16.07;44.80
66857;BME280;53766;50.280;19.160;2023-04-07T05:51:17;98326.44;;;16.07;44.82
66857;BME280;53766;50.280;19.160;2023-04-07T05:53:45;98321.13;;;16.07;44.58
66857;BME280;53766;50.280;19.160;2023-04-07T05:56:12;98320.94;;;16.08;44.70
66857;BME280;53766;50.280;19.160;2023-04-07T05:58:40;98316.84;;;16.06;44.49
66857;BME280;53766;50.280;19.160;2023-04-07T06:01:07;98323.78;;;16.07;44.75
66857;BME280;53766;50.280;19.160;2023-04-07T06:03:35;98316.84;;;16.06;44.68
66857;BME280;53766;50.280;19.160;2023-04-07T06:06:02;98306.41;;;16.04;44.66
66857;BME280;53766;50.280;19.160;2023-04-07T06:08:30;98304.56;;;16.04;44.70
66857;BME280;53766;50.280;19.160;2023-04-07T06:10:57;98304.56;;;16.04;44.70
66857;BME280;53766;50.280;19.160;2023-04-07T06:13:25;98296.59;;;16.04;44.45
66857;BME280;53766;50.280;19.160;2023-04-07T06:15:54;98303.75;;;16.04;44.63
66857;BME280;53766;50.280;19.160;2023-04-07T06:18:22;98306.56;;;16.02;44.35
66857;BME280;53766;50.280;19.160;2023-04-07T06:20:50;98308.22;;;16.03;44.33
66857;BME280;53766;50.280;19.160;2023-04-07T06:23:17;98307.41;;;16.03;44.51
66857;BME280;53766;50.280;19.160;2023-04-07T06:25:44;98304.94;;;16.01;44.24
66857;BME280;53766;50.280;19.160;2023-04-07T06:28:12;98303.09;;;16.02;44.18
66857;BME280;53766;50.280;19.160;2023-04-07T06:30:39;98300.44;;;16.02;44.34
66857;BME280;53766;50.280;19.160;2023-04-07T06:33:07;98299.63;;;16.01;44.29
66857;BME280;53766;50.280;19.160;2023-04-07T06:35:35;98293.50;;;16.01;44.29
66857;BME280;53766;50.280;19.160;2023-04-07T06:38:03;98309.44;;;16.01;44.25
66857;BME280;53766;50.280;19.160;2023-04-07T06:40:31;98302.28;;;16.01;44.24
66857;BME280;53766;50.280;19.160;2023-04-07T06:42:58;98305.97;;;16.00;44.29
66857;BME280;53766;50.280;19.160;2023-04-07T06:45:26;98308.63;;;16.00;44.05
66857;BME280;53766;50.280;19.160;2023-04-07T06:47:53;98308.63;;;16.00;44.07
66857;BME280;53766;50.280;19.160;2023-04-07T06:50:21;98316.59;;;16.00;44.35
66857;BME280;53766;50.280;19.160;2023-04-07T06:52:48;98313.94;;;16.00;44.09
66857;BME280;53766;50.280;19.160;2023-04-07T06:55:16;98313.94;;;16.00;44.26
66857;BME280;53766;50.280;19.160;2023-04-07T06:57:43;98319.25;;;16.00;44.21
66857;BME280;53766;50.280;19.160;2023-04-07T07:00:11;98324.56;;;16.00;44.00
66857;BME280;53766;50.280;19.160;2023-04-07T07:02:40;98313.09;;;16.00;44.21
66857;BME280;53766;50.280;19.160;2023-04-07T07:05:07;98313.09;;;16.00;43.95
66857;BME280;53766;50.280;19.160;2023-04-07T07:07:35;98321.06;;;16.00;43.94
66857;BME280;53766;50.280;19.160;2023-04-07T07:10:03;98306.97;;;15.99;44.04
66857;BME280;53766;50.280;19.160;2023-04-07T07:12:30;98310.66;;;15.98;44.02
66857;BME280;53766;50.280;19.160;2023-04-07T07:14:58;98308.81;;;15.99;43.99
66857;BME280;53766;50.280;19.160;2023-04-07T07:17:25;98314.31;;;15.97;43.99
66857;BME280;53766;50.280;19.160;2023-04-07T07:19:53;98314.31;;;15.97;43.89
66857;BME280;53766;50.280;19.160;2023-04-07T07:22:20;98312.28;;;15.99;44.02
66857;BME280;53766;50.280;19.160;2023-04-07T07:24:48;98326.59;;;15.98;43.88
66857;BME280;53766;50.280;19.160;2023-04-07T07:27:15;98324.94;;;15.97;43.97
66857;BME280;53766;50.280;19.160;2023-04-07T07:29:42;98338.84;;;15.99;43.84
66857;BME280;53766;50.280;19.160;2023-04-07T07:32:10;98346.19;;;15.97;43.86
66857;BME280;53766;50.280;19.160;2023-04-07T07:34:38;98337.22;;;15.98;43.72
66857;BME280;53766;50.280;19.160;2023-04-07T07:37:05;98337.22;;;15.98;43.82
66857;BME280;53766;50.280;19.160;2023-04-07T07:39:32;98334.56;;;15.98;43.76
66857;BME280;53766;50.280;19.160;2023-04-07T07:42:00;98343.72;;;15.96;43.63
66857;BME280;53766;50.280;19.160;2023-04-07T07:44:27;98335.56;;;15.97;43.83
66857;BME280;53766;50.280;19.160;2023-04-07T07:46:58;98334.75;;;15.97;43.87
66857;BME280;53766;50.280;19.160;2023-04-07T07:49:26;98343.72;;;15.96;43.72
66857;BME280;53766;50.280;19.160;2023-04-07T07:51:53;98338.41;;;15.96;43.77
66857;BME280;53766;50.280;19.160;2023-04-07T07:54:21;98338.41;;;15.96;43.74
66857;BME280;53766;50.280;19.160;2023-04-07T07:56:48;98330.06;;;15.99;43.61
66857;BME280;53766;50.280;19.160;2023-04-07T07:59:15;98313.31;;;15.98;43.52
66857;BME280;53766;50.280;19.160;2023-04-07T08:01:44;98298.00;;;16.00;43.53
66857;BME280;53766;50.280;19.160;2023-04-07T08:04:12;98306.56;;;16.02;43.57
66857;BME280;53766;50.280;19.160;2023-04-07T08:06:40;98327.81;;;16.02;43.64
66857;BME280;53766;50.280;19.160;2023-04-07T08:09:08;98324.16;;;16.03;43.70
66857;BME280;53766;50.280;19.160;2023-04-07T08:11:37;98321.34;;;16.05;43.69
66857;BME280;53766;50.280;19.160;2023-04-07T08:14:04;98339.72;;;16.07;43.79
66857;BME280;53766;50.280;19.160;2023-04-07T08:16:34;98335.63;;;16.04;43.82
66857;BME280;53766;50.280;19.160;2023-04-07T08:19:01;98341.75;;;16.04;43.75
66857;BME280;53766;50.280;19.160;2023-04-07T08:21:28;98342.38;;;16.07;43.78
66857;BME280;53766;50.280;19.160;2023-04-07T08:23:57;98327.47;;;16.06;43.88
66857;BME280;53766;50.280;19.160;2023-04-07T08:26:25;98329.09;;;16.07;43.91
66857;BME280;53766;50.280;19.160;2023-04-07T08:28:53;98327.47;;;16.06;43.82
66857;BME280;53766;50.280;19.160;2023-04-07T08:31:22;98329.09;;;16.07;44.03
66857;BME280;53766;50.280;19.160;2023-04-07T08:33:49;98330.75;;;16.08;43.72
66857;BME280;53766;50.280;19.160;2023-04-07T08:36:20;98329.09;;;16.07;43.76
66857;BME280;53766;50.280;19.160;2023-04-07T08:38:47;98329.09;;;16.07;43.72
66857;BME280;53766;50.280;19.160;2023-04-07T08:41:28;98335.44;;;16.06;43.57
66857;BME280;53766;50.280;19.160;2023-04-07T08:43:56;98341.38;;;16.08;43.67
66857;BME280;53766;50.280;19.160;2023-04-07T08:46:24;98339.72;;;16.07;43.89
66857;BME280;53766;50.280;19.160;2023-04-07T08:48:54;98336.25;;;16.06;43.74
66857;BME280;53766;50.280;19.160;2023-04-07T08:51:32;98336.06;;;16.08;43.72
66857;BME280;53766;50.280;19.160;2023-04-07T08:54:15;98329.94;;;16.07;43.74
66857;BME280;53766;50.280;19.160;2023-04-07T08:56:44;98335.25;;;16.07;43.85
66857;BME280;53766;50.280;19.160;2023-04-07T08:59:15;98339.72;;;16.07;43.85
66857;BME280;53766;50.280;19.160;2023-04-07T09:01:45;98337.06;;;16.07;43.53
66857;BME280;53766;50.280;19.160;2023-04-07T09:04:13;98330.75;;;16.08;43.58
66857;BME280;53766;50.280;19.160;2023-04-07T09:06:42;98328.28;;;16.06;43.58
66857;BME280;53766;50.280;19.160;2023-04-07T09:09:09;98313.16;;;16.07;43.52
66857;BME280;53766;50.280;19.160;2023-04-07T09:11:38;98304.38;;;16.06;43.58
66857;BME280;53766;50.280;19.160;2023-04-07T09:14:06;98310.50;;;16.07;43.65
66857;BME280;53766;50.280;19.160;2023-04-07T09:16:34;98307.03;;;16.06;43.79
66857;BME280;53766;50.280;19.160;2023-04-07T09:19:02;98318.47;;;16.07;43.63
66857;BME280;53766;50.280;19.160;2023-04-07T09:21:46;98316.44;;;16.09;43.56
66857;BME280;53766;50.280;19.160;2023-04-07T09:24:26;98318.47;;;16.07;43.50
66857;BME280;53766;50.280;19.160;2023-04-07T09:27:13;98314.00;;;16.07;43.55
66857;BME280;53766;50.280;19.160;2023-04-07T09:29:45;98313.16;;;16.07;43.28
66857;BME280;53766;50.280;19.160;2023-04-07T09:32:40;98314.81;;;16.08;43.49
66857;BME280;53766;50.280;19.160;2023-04-07T09:35:08;98308.88;;;16.06;43.71
66857;BME280;53766;50.280;19.160;2023-04-07T09:37:35;98314.19;;;16.06;43.64
66857;BME280;53766;50.280;19.160;2023-04-07T09:40:04;98307.84;;;16.07;43.82
66857;BME280;53766;50.280;19.160;2023-04-07T09:42:31;98306.22;;;16.06;43.79
66857;BME280;53766;50.280;19.160;2023-04-07T09:45:01;98308.88;;;16.06;43.87
66857;BME280;53766;50.280;19.160;2023-04-07T09:47:31;98313.16;;;16.07;43.81
66857;BME280;53766;50.280;19.160;2023-04-07T09:50:00;98311.53;;;16.06;43.71
66857;BME280;53766;50.280;19.160;2023-04-07T09:53:03;98311.53;;;16.06;43.82
66857;BME280;53766;50.280;19.160;2023-04-07T09:55:31;98307.84;;;16.07;43.87
66857;BME280;53766;50.280;19.160;2023-04-07T09:58:00;98317.47;;;16.08;43.82
66857;BME280;53766;50.280;19.160;2023-04-07T10:00:28;98318.47;;;16.07;43.76
66857;BME280;53766;50.280;19.160;2023-04-07T10:02:56;98313.16;;;16.07;43.83
66857;BME280;53766;50.280;19.160;2023-04-07T10:05:24;98313.16;;;16.07;43.99
66857;BME280;53766;50.280;19.160;2023-04-07T10:07:52;98312.34;;;16.06;43.79
66857;BME280;53766;50.280;19.160;2023-04-07T10:10:20;98312.34;;;16.06;43.83
66857;BME280;53766;50.280;19.160;2023-04-07T10:12:48;98304.19;;;16.08;43.88
66857;BME280;53766;50.280;19.160;2023-04-07T10:15:16;98311.13;;;16.09;43.64
66857;BME280;53766;50.280;19.160;2023-04-07T10:17:45;98314.81;;;16.08;43.76
66857;BME280;53766;50.280;19.160;2023-04-07T10:20:17;98324.63;;;16.07;43.87
66857;BME280;53766;50.280;19.160;2023-04-07T10:22:47;98325.44;;;16.08;43.83
66857;BME280;53766;50.280;19.160;2023-04-07T10:25:18;98326.25;;;16.08;43.62
66857;BME280;53766;50.280;19.160;2023-04-07T10:27:52;98320.94;;;16.08;44.01
66857;BME280;53766;50.280;19.160;2023-04-07T10:30:26;98313.16;;;16.07;43.75
66857;BME280;53766;50.280;19.160;2023-04-07T10:32:54;98322.59;;;16.09;43.67
66857;BME280;53766;50.280;19.160;2023-04-07T10:35:23;98319.09;;;16.09;43.62
66857;BME280;53766;50.280;19.160;2023-04-07T10:40:35;98316.66;;;16.07;43.84
66857;BME280;53766;50.280;19.160;2023-04-07T10:43:04;98319.09;;;16.09;43.67
66857;BME280;53766;50.280;19.160;2023-04-07T10:48:14;98319.09;;;16.09;43.71
66857;BME280;53766;50.280;19.160;2023-04-07T10:50:43;98310.50;;;16.07;43.54
66857;BME280;53766;50.280;19.160;2023-04-07T10:53:14;98314.81;;;16.08;43.72
66857;BME280;53766;50.280;19.160;2023-04-07T10:55:45;98320.13;;;16.08;43.52
66857;BME280;53766;50.280;19.160;2023-04-07T11:03:29;98311.97;;;16.09;43.63
66857;BME280;53766;50.280;19.160;2023-04-07T11:06:10;98300.50;;;16.09;43.62
66857;BME280;53766;50.280;19.160;2023-04-07T11:08:46;98295.19;;;16.09;43.61
66857;BME280;53766;50.280;19.160;2023-04-07T11:11:20;98296.84;;;16.10;43.56
66857;BME280;53766;50.280;19.160;2023-04-07T11:14:00;98294.81;;;16.12;43.65
66857;BME280;53766;50.280;19.160;2023-04-07T11:16:41;98294.81;;;16.12;43.54
66857;BME280;53766;50.280;19.160;2023-04-07T11:19:11;98300.13;;;16.12;43.56
66857;BME280;53766;50.280;19.160;2023-04-07T11:21:38;98299.28;;;16.11;43.62
66857;BME280;53766;50.280;19.160;2023-04-07T11:24:06;98295.63;;;16.12;43.52
66857;BME280;53766;50.280;19.160;2023-04-07T11:26:38;98291.53;;;16.10;43.61
66857;BME280;53766;50.280;19.160;2023-04-07T11:29:06;98298.47;;;16.11;43.47
66857;BME280;53766;50.280;19.160;2023-04-07T11:31:34;98294.81;;;16.12;43.53
66857;BME280;53766;50.280;19.160;2023-04-07T11:34:03;98291.31;;;16.11;43.39
66857;BME280;53766;50.280;19.160;2023-04-07T11:36:32;98291.13;;;16.13;43.42
66857;BME280;53766;50.280;19.160;2023-04-07T11:39:01;98288.66;;;16.11;43.41
66857;BME280;53766;50.280;19.160;2023-04-07T11:41:30;98294.81;;;16.12;43.71
66857;BME280;53766;50.280;19.160;2023-04-07T11:44:06;98294.81;;;16.12;43.44
66857;BME280;53766;50.280;19.160;2023-04-07T11:46:35;98290.50;;;16.11;43.38
66857;BME280;53766;50.280;19.160;2023-04-07T11:49:13;98290.50;;;16.11;43.54
66857;BME280;53766;50.280;19.160;2023-04-07T11:51:44;98288.88;;;16.10;43.64
66857;BME280;53766;50.280;19.160;2023-04-07T11:54:13;98293.16;;;16.11;43.46
66857;BME280;53766;50.280;19.160;2023-04-07T11:56:44;98299.50;;;16.10;43.49
66857;BME280;53766;50.280;19.160;2023-04-07T11:59:23;98311.13;;;16.09;43.38
66857;BME280;53766;50.280;19.160;2023-04-07T12:01:51;98314.41;;;16.11;43.65
66857;BME280;53766;50.280;19.160;2023-04-07T12:04:23;98313.78;;;16.09;43.70
66857;BME280;53766;50.280;19.160;2023-04-07T12:06:51;98311.13;;;16.09;43.50
66857;BME280;53766;50.280;19.160;2023-04-07T12:11:56;98299.69;;;16.08;43.66
66857;BME280;53766;50.280;19.160;2023-04-07T12:14:25;98302.34;;;16.08;43.53
66857;BME280;53766;50.280;19.160;2023-04-07T12:16:56;98298.88;;;16.08;43.58
66857;BME280;53766;50.280;19.160;2023-04-07T12:19:26;98299.69;;;16.08;43.50
66857;BME280;53766;50.280;19.160;2023-04-07T12:21:56;98296.84;;;16.10;43.36
66857;BME280;53766;50.280;19.160;2023-04-07T12:24:24;98300.50;;;16.09;43.54
66857;BME280;53766;50.280;19.160;2023-04-07T12:26:51;98301.34;;;16.09;43.63
66857;BME280;53766;50.280;19.160;2023-04-07T12:29:19;98298.69;;;16.09;43.52
66857;BME280;53766;50.280;19.160;2023-04-07T12:31:47;98301.53;;;16.08;43.64
66857;BME280;53766;50.280;19.160;2023-04-07T12:34:17;98303.16;;;16.09;43.51
66857;BME280;53766;50.280;19.160;2023-04-07T12:36:45;98299.69;;;16.08;43.54
66857;BME280;53766;50.280;19.160;2023-04-07T12:39:13;98297.84;;;16.09;43.36
66857;BME280;53766;50.280;19.160;2023-04-07T12:41:41;98304.19;;;16.08;43.57
66857;BME280;53766;50.280;19.160;2023-04-07T12:44:11;98305.81;;;16.09;43.33
66857;BME280;53766;50.280;19.160;2023-04-07T12:46:38;98303.16;;;16.09;43.38
66857;BME280;53766;50.280;19.160;2023-04-07T12:49:06;98303.16;;;16.09;43.60
66857;BME280;53766;50.280;19.160;2023-04-07T12:51:33;98301.34;;;16.09;43.43
66857;BME280;53766;50.280;19.160;2023-04-07T12:54:01;98296.84;;;16.10;43.57
66857;BME280;53766;50.280;19.160;2023-04-07T12:56:29;98300.50;;;16.09;43.51
66857;BME280;53766;50.280;19.160;2023-04-07T12:58:57;98294.56;;;16.07;43.51
66857;BME280;53766;50.280;19.160;2023-04-07T13:01:24;98298.88;;;16.08;43.32
66857;BME280;53766;50.280;19.160;2023-04-07T13:03:52;98301.72;;;16.06;43.38
66857;BME280;53766;50.280;19.160;2023-04-07T13:06:20;98293.50;;;16.01;43.72
66857;BME280;53766;50.280;19.160;2023-04-07T13:08:48;98306.34;;;15.97;43.49
66857;BME280;53766;50.280;19.160;2023-04-07T13:11:15;98297.75;;;15.95;43.49
66857;BME280;53766;50.280;19.160;2023-04-07T13:13:43;98303.44;;;15.92;43.72
66857;BME280;53766;50.280;19.160;2023-04-07T13:16:10;98302.81;;;15.90;43.68
66857;BME280;53766;50.280;19.160;2023-04-07T13:18:38;98304.03;;;15.88;43.83
66857;BME280;53766;50.280;19.160;2023-04-07T13:21:05;98311.13;;;15.87;43.95
66857;BME280;53766;50.280;19.160;2023-04-07T13:23:53;98309.69;;;15.84;43.65